Terminal Aerodrome Forecast
Issued by NWS

Home | Current Version | Previous Version | Graphics & Text | Print | Product List | Glossary On
Versions: 1 2 3 4 5 6 7 8 9 10 11 12 13 14 15 16 17 18 19
480
FTUS43 KIWX 090320 CCA
TAFSBN
TAF COR
KSBN 090320Z 0903/0924 29010KT 4SM -SHSN OVC012
      TEMPO 0903/0906 2SM -SHSN OVC008
     FM090600 29010KT 3SM -SHSN OVC015
      TEMPO 0906/0908 1SM -SHSN OVC008
     FM090800 30012KT 2SM -SHSN OVC012
     FM091400 32013G19KT 4SM -SHSN OVC015=

USA.gov is the U.S. government's official web portal to all federal, state and local government web resources and services.